createdAt,value
2022-10-15T00:00:20.761Z,1.20
2022-10-15T00:02:47.680Z,1.67
2022-10-15T00:05:14.671Z,0.93
2022-10-15T00:07:41.672Z,1.10
2022-10-15T00:10:08.627Z,1.20
2022-10-15T00:12:36.082Z,1.20
2022-10-15T00:15:03.379Z,1.30
2022-10-15T00:17:30.323Z,1.38
2022-10-15T00:19:57.381Z,1.10
2022-10-15T00:22:24.558Z,1.23
2022-10-15T00:24:51.712Z,1.30
2022-10-15T00:27:18.660Z,1.30
2022-10-15T00:29:45.612Z,2.45
2022-10-15T00:32:12.547Z,1.27
2022-10-15T00:34:39.514Z,1.27
2022-10-15T00:37:07.322Z,1.38
2022-10-15T00:39:34.780Z,1.20
2022-10-15T00:42:01.709Z,1.35
2022-10-15T00:44:32.161Z,1.50
2022-10-15T00:47:29.855Z,1.33
2022-10-15T00:50:01.416Z,1.35
2022-10-15T00:52:50.196Z,1.10
2022-10-15T00:55:31.335Z,1.17
2022-10-15T00:58:14.393Z,1.30
2022-10-15T01:00:42.118Z,1.88
2022-10-15T01:03:09.635Z,1.52
2022-10-15T01:05:38.733Z,1.10
2022-10-15T01:08:09.673Z,1.40
2022-10-15T01:10:53.329Z,1.70
2022-10-15T01:13:25.453Z,1.23
2022-10-15T01:18:56.271Z,1.73
2022-10-15T01:21:38.277Z,1.60
2022-10-15T01:24:42.913Z,2.08
2022-10-15T01:27:45.317Z,1.73
2022-10-15T01:30:24.008Z,1.92
2022-10-15T01:33:08.644Z,2.28
2022-10-15T01:35:47.182Z,2.33
2022-10-15T01:38:19.713Z,1.75
2022-10-15T01:40:53.318Z,2.45
2022-10-15T01:43:38.178Z,2.17
2022-10-15T01:46:59.204Z,2.20
2022-10-15T01:49:30.428Z,2.28
2022-10-15T01:52:01.067Z,2.40
2022-10-15T01:54:30.428Z,2.10
2022-10-15T01:56:58.992Z,1.83
2022-10-15T01:59:31.445Z,2.58
2022-10-15T02:01:58.780Z,2.10
2022-10-15T02:04:31.491Z,1.95
2022-10-15T02:07:25.277Z,1.83
2022-10-15T02:09:57.932Z,1.92
2022-10-15T02:12:50.613Z,1.90
2022-10-15T02:15:22.955Z,1.77
2022-10-15T02:18:10.259Z,1.83
2022-10-15T02:23:22.315Z,2.15
2022-10-15T02:25:52.140Z,1.27
2022-10-15T02:28:20.440Z,1.70
2022-10-15T02:30:52.946Z,1.90
2022-10-15T02:33:21.099Z,1.90
2022-10-15T02:35:51.368Z,1.80
2022-10-15T02:38:23.254Z,1.95
2022-10-15T02:40:52.009Z,1.98
2022-10-15T02:43:21.357Z,1.58
2022-10-15T02:45:50.785Z,1.80
2022-10-15T02:48:18.636Z,2.42
2022-10-15T02:50:47.278Z,2.45
2022-10-15T02:53:14.366Z,2.72
2022-10-15T02:55:43.092Z,3.28
2022-10-15T02:58:09.950Z,2.33
2022-10-15T03:00:37.137Z,2.78
2022-10-15T03:03:04.265Z,2.58
2022-10-15T03:05:31.474Z,2.45
2022-10-15T03:08:00.513Z,2.50
2022-10-15T03:10:28.313Z,2.33
2022-10-15T03:12:55.395Z,2.55
2022-10-15T03:15:23.001Z,2.70
2022-10-15T03:17:51.128Z,2.20
2022-10-15T03:20:18.198Z,2.50
2022-10-15T03:22:45.368Z,3.00
2022-10-15T03:25:12.488Z,2.88
2022-10-15T03:27:39.930Z,3.13
2022-10-15T03:30:20.488Z,3.10
2022-10-15T03:32:48.353Z,3.50
2022-10-15T03:35:15.969Z,2.78
2022-10-15T03:37:42.935Z,3.40
2022-10-15T03:40:13.641Z,3.17
2022-10-15T03:42:41.867Z,2.90
2022-10-15T03:45:10.786Z,3.25
2022-10-15T03:47:38.192Z,3.65
2022-10-15T03:50:05.504Z,3.67
2022-10-15T03:52:32.487Z,3.50
2022-10-15T03:54:59.907Z,4.03
2022-10-15T03:57:26.895Z,4.03
2022-10-15T04:00:00.168Z,3.92
2022-10-15T04:02:30.778Z,4.22
2022-10-15T04:04:58.057Z,3.92
2022-10-15T04:07:25.975Z,4.50
2022-10-15T04:09:53.047Z,4.22
2022-10-15T04:12:23.941Z,4.55
2022-10-15T04:14:51.517Z,4.70
2022-10-15T04:17:18.649Z,4.93
2022-10-15T04:19:45.824Z,5.03
2022-10-15T04:22:14.689Z,4.93
2022-10-15T04:24:47.172Z,4.63
2022-10-15T04:27:24.306Z,4.70
2022-10-15T04:29:51.389Z,4.70
2022-10-15T04:32:18.922Z,5.45
2022-10-15T04:34:47.416Z,5.00
2022-10-15T04:37:15.991Z,5.63
2022-10-15T04:39:42.984Z,5.55
2022-10-15T04:42:12.956Z,5.07
2022-10-15T04:44:40.540Z,4.88
2022-10-15T04:47:07.640Z,5.43
2022-10-15T04:49:41.537Z,5.00
2022-10-15T04:52:27.517Z,5.03
2022-10-15T04:55:04.941Z,4.28
2022-10-15T04:57:32.373Z,4.57
2022-10-15T04:59:59.267Z,5.07
2022-10-15T05:02:33.198Z,5.18
2022-10-15T05:05:19.040Z,4.75
2022-10-15T05:08:03.636Z,4.60
2022-10-15T05:10:34.762Z,4.70
2022-10-15T05:13:05.570Z,4.65
2022-10-15T05:15:35.154Z,5.00
2022-10-15T05:18:06.038Z,4.43
2022-10-15T05:20:42.029Z,4.70
2022-10-15T05:23:14.180Z,4.50
2022-10-15T05:25:50.378Z,4.70
2022-10-15T05:28:22.874Z,4.63
2022-10-15T05:30:49.789Z,4.32
2022-10-15T05:33:16.880Z,4.80
2022-10-15T05:35:43.849Z,4.60
2022-10-15T05:38:10.785Z,4.50
2022-10-15T05:40:39.369Z,4.82
2022-10-15T05:43:11.539Z,4.25
2022-10-15T05:45:38.569Z,4.00
2022-10-15T05:48:07.002Z,4.75
2022-10-15T05:50:34.857Z,4.13
2022-10-15T05:53:04.208Z,4.75
2022-10-15T05:55:37.519Z,4.65
2022-10-15T05:58:05.234Z,4.28
2022-10-15T06:00:32.855Z,4.63
2022-10-15T06:02:59.764Z,4.57
2022-10-15T06:05:26.674Z,4.55
2022-10-15T06:07:53.691Z,4.50
2022-10-15T06:10:20.561Z,4.28
2022-10-15T06:12:51.242Z,4.88
2022-10-15T06:15:19.401Z,4.07
2022-10-15T06:17:46.316Z,4.53
2022-10-15T06:20:14.163Z,3.85
2022-10-15T06:22:41.119Z,4.53
2022-10-15T06:25:09.504Z,3.90
2022-10-15T06:27:36.539Z,4.07
2022-10-15T06:30:04.347Z,4.40
2022-10-15T06:32:31.520Z,3.75
2022-10-15T06:34:58.441Z,3.88
2022-10-15T06:37:26.507Z,4.50
2022-10-15T06:39:56.075Z,4.32
2022-10-15T06:42:23.170Z,4.00
2022-10-15T06:44:55.252Z,3.70
2022-10-15T06:47:22.521Z,3.75
2022-10-15T06:49:50.363Z,3.58
2022-10-15T06:52:17.252Z,3.78
2022-10-15T06:54:44.140Z,4.13
2022-10-15T06:57:11.114Z,3.42
2022-10-15T06:59:41.189Z,3.70
2022-10-15T07:02:17.872Z,3.80
2022-10-15T07:04:45.526Z,3.70
2022-10-15T07:07:18.418Z,3.92
2022-10-15T07:09:46.921Z,2.90
2022-10-15T07:12:14.147Z,3.97
2022-10-15T07:14:42.481Z,2.85
2022-10-15T07:17:09.705Z,3.22
2022-10-15T07:19:36.607Z,2.58
2022-10-15T07:22:03.625Z,2.63
2022-10-15T07:24:30.654Z,2.92
2022-10-15T07:26:57.670Z,2.95
2022-10-15T07:29:24.735Z,2.72
2022-10-15T07:31:51.757Z,2.70
2022-10-15T07:34:19.354Z,2.70
2022-10-15T07:36:46.208Z,3.00
2022-10-15T07:39:13.746Z,2.50
2022-10-15T07:41:40.741Z,2.83
2022-10-15T07:44:07.697Z,2.85
2022-10-15T07:46:34.636Z,2.83
2022-10-15T07:49:01.570Z,2.85
2022-10-15T07:51:28.545Z,3.22
2022-10-15T07:53:56.283Z,4.00
2022-10-15T07:56:23.161Z,2.92
2022-10-15T07:58:52.867Z,2.70
2022-10-15T08:01:21.251Z,3.50
2022-10-15T08:03:48.532Z,3.67
2022-10-15T08:06:15.663Z,3.03
2022-10-15T08:08:43.329Z,3.67
2022-10-15T08:11:13.264Z,4.03
2022-10-15T08:13:42.231Z,3.60
2022-10-15T08:16:11.066Z,3.50
2022-10-15T08:18:38.935Z,3.53
2022-10-15T08:21:06.962Z,4.15
2022-10-15T08:23:34.982Z,3.75
2022-10-15T08:26:02.230Z,3.50
2022-10-15T08:28:29.599Z,4.47
2022-10-15T08:31:04.388Z,4.22
2022-10-15T08:33:37.431Z,5.20
2022-10-15T08:36:08.292Z,5.80
2022-10-15T08:38:35.727Z,5.35
2022-10-15T08:41:06.089Z,5.07
2022-10-15T08:43:40.362Z,4.88
2022-10-15T08:46:22.782Z,4.93
2022-10-15T08:48:53.932Z,4.30
2022-10-15T08:51:28.585Z,3.70
2022-10-15T08:54:00.261Z,3.70
2022-10-15T08:56:27.100Z,2.83
2022-10-15T08:59:18.649Z,2.85
2022-10-15T09:02:03.821Z,2.75
2022-10-15T09:04:42.528Z,2.60
2022-10-15T09:07:13.279Z,2.88
2022-10-15T09:09:52.561Z,2.83
2022-10-15T09:12:29.101Z,2.50
2022-10-15T09:14:58.738Z,2.55
2022-10-15T09:17:32.121Z,2.10
2022-10-15T09:20:02.970Z,2.70
2022-10-15T09:22:33.830Z,2.17
2022-10-15T09:25:14.446Z,2.25
2022-10-15T09:27:42.846Z,1.98
2022-10-15T09:30:25.031Z,2.03
2022-10-15T09:32:55.917Z,1.75
2022-10-15T09:35:29.742Z,1.80
2022-10-15T09:37:56.639Z,2.15
2022-10-15T09:41:16.756Z,1.80
2022-10-15T09:43:48.706Z,1.67
2022-10-15T10:17:06.575Z,1.63
2022-10-15T10:19:33.600Z,1.33
2022-10-15T10:22:20.057Z,1.48
2022-10-15T10:24:47.795Z,1.85
2022-10-15T10:27:25.432Z,1.77
2022-10-15T10:29:56.966Z,1.42
2022-10-15T10:32:30.638Z,1.52
2022-10-15T10:34:58.988Z,1.83
2022-10-15T10:37:26.603Z,1.58
2022-10-15T10:39:59.247Z,1.77
2022-10-15T10:42:34.702Z,1.35
2022-10-15T10:45:24.226Z,1.70
2022-10-15T10:47:51.108Z,1.42
2022-10-15T10:50:40.654Z,1.20
2022-10-15T10:53:25.886Z,1.40
2022-10-15T10:55:56.638Z,1.65
2022-10-15T10:58:29.455Z,1.80
2022-10-15T11:00:58.118Z,1.50
2022-10-15T11:03:37.073Z,1.30
2022-10-15T11:06:16.073Z,1.77
2022-10-15T11:08:58.431Z,1.50
2022-10-15T11:11:48.467Z,1.38
2022-10-15T11:14:44.353Z,1.23
2022-10-15T11:17:24.739Z,1.70
2022-10-15T11:20:26.671Z,1.13
2022-10-15T11:23:11.908Z,1.40
2022-10-15T11:25:53.895Z,1.17
2022-10-15T11:28:51.414Z,1.48
2022-10-15T11:31:29.453Z,1.38
2022-10-15T11:34:14.793Z,1.60
2022-10-15T11:36:50.486Z,1.58
2022-10-15T11:39:34.893Z,1.60
2022-10-15T11:42:10.752Z,1.80
2022-10-15T11:44:53.638Z,1.60
2022-10-15T11:47:26.389Z,1.50
2022-10-15T11:50:30.536Z,1.30
2022-10-15T11:53:06.194Z,1.77
2022-10-15T11:55:42.604Z,1.50
2022-10-15T11:58:29.252Z,2.03
2022-10-15T12:01:01.955Z,1.73
2022-10-15T12:03:35.399Z,1.80
2022-10-15T12:06:14.179Z,1.50
2022-10-15T12:08:42.890Z,1.60
2022-10-15T12:11:48.115Z,1.95
2022-10-15T12:14:35.350Z,1.70
2022-10-15T12:17:14.597Z,1.80
2022-10-15T12:19:54.674Z,2.03
2022-10-15T12:22:47.529Z,2.00
2022-10-15T12:25:36.019Z,1.80
2022-10-15T12:28:13.766Z,2.33
2022-10-15T12:30:42.641Z,1.70
2022-10-15T12:33:35.520Z,1.40
2022-10-15T12:36:09.340Z,1.40
2022-10-15T12:38:41.447Z,1.85
2022-10-15T12:41:11.182Z,2.33
2022-10-15T12:43:42.696Z,2.00
2022-10-15T12:46:11.672Z,1.98
2022-10-15T12:48:44.686Z,1.55
2022-10-15T12:51:23.943Z,1.70
2022-10-15T12:53:53.120Z,1.90
2022-10-15T12:56:25.215Z,1.83
2022-10-15T12:58:55.093Z,2.00
2022-10-15T13:01:22.064Z,2.08
2022-10-15T13:03:49.025Z,1.88
2022-10-15T13:06:21.921Z,1.95
2022-10-15T13:09:09.788Z,1.77
2022-10-15T13:11:47.341Z,1.55
2022-10-15T13:14:31.594Z,1.73
2022-10-15T13:17:02.568Z,2.03
2022-10-15T13:19:46.077Z,2.05
2022-10-15T13:22:28.442Z,3.35
2022-10-15T13:24:56.722Z,1.83
2022-10-15T13:27:25.944Z,2.15
2022-10-15T13:30:01.596Z,2.10
2022-10-15T13:32:32.549Z,1.88
2022-10-15T13:35:10.570Z,2.03
2022-10-15T13:37:40.503Z,2.15
2022-10-15T13:40:08.541Z,1.95
2022-10-15T13:42:35.777Z,2.05
2022-10-15T13:45:18.504Z,1.77
2022-10-15T13:47:51.529Z,1.90
2022-10-15T13:50:21.369Z,1.70
2022-10-15T13:53:03.219Z,1.65
2022-10-15T13:55:37.047Z,2.00
2022-10-15T13:58:17.629Z,1.83
2022-10-15T14:00:52.131Z,2.03
2022-10-15T14:03:31.022Z,1.90
2022-10-15T14:06:14.657Z,1.80
2022-10-15T14:08:41.717Z,1.65
2022-10-15T14:11:13.208Z,1.92
2022-10-15T14:13:48.195Z,1.60
2022-10-15T14:16:39.675Z,1.80
2022-10-15T14:19:09.208Z,1.90
2022-10-15T14:21:37.835Z,2.63
2022-10-15T14:24:15.886Z,1.70
2022-10-15T14:26:44.187Z,1.50
2022-10-15T14:29:36.221Z,1.58
2022-10-15T14:32:03.293Z,1.98
2022-10-15T14:34:35.873Z,1.88
2022-10-15T14:37:04.175Z,1.23
2022-10-15T14:39:34.773Z,1.50
2022-10-15T14:42:04.514Z,1.77
2022-10-15T14:44:48.528Z,1.50
2022-10-15T14:47:27.677Z,1.70
2022-10-15T14:49:59.871Z,1.50
2022-10-15T14:52:30.644Z,1.52
2022-10-15T14:55:38.394Z,1.52
2022-10-15T14:58:10.902Z,1.52
2022-10-15T15:00:47.022Z,1.80
2022-10-15T15:03:19.898Z,1.77
2022-10-15T15:05:55.032Z,1.33
2022-10-15T15:08:23.343Z,2.10
2022-10-15T15:10:51.600Z,1.77
2022-10-15T15:13:22.622Z,1.70
2022-10-15T15:15:50.119Z,1.27
2022-10-15T15:18:17.200Z,2.40
2022-10-15T15:20:46.261Z,1.70
2022-10-15T15:23:25.985Z,1.60
2022-10-15T15:25:54.271Z,2.47
2022-10-15T15:28:24.124Z,1.80
2022-10-15T15:31:16.183Z,1.88
2022-10-15T15:33:44.294Z,1.40
2022-10-15T15:36:19.082Z,1.67
2022-10-15T15:38:51.080Z,1.55
2022-10-15T15:41:20.208Z,1.40
2022-10-15T15:43:47.837Z,1.33
2022-10-15T15:46:15.620Z,1.42
2022-10-15T15:48:42.694Z,1.10
2022-10-15T15:51:30.689Z,1.48
2022-10-15T15:53:58.531Z,1.50
2022-10-15T15:56:25.986Z,1.83
2022-10-15T15:58:53.027Z,2.00
2022-10-15T16:01:21.128Z,1.50
2022-10-15T16:03:48.272Z,1.38
2022-10-15T16:06:15.263Z,1.58
2022-10-15T16:08:42.250Z,1.52
2022-10-15T16:11:09.149Z,1.85
2022-10-15T16:13:36.222Z,1.48
2022-10-15T16:16:03.724Z,1.40
2022-10-15T16:18:30.713Z,1.80
2022-10-15T16:20:57.842Z,1.83
2022-10-15T16:23:24.781Z,1.63
2022-10-15T16:25:52.003Z,2.10
2022-10-15T16:28:18.925Z,1.42
2022-10-15T16:30:45.923Z,1.60
2022-10-15T16:33:12.866Z,1.17
2022-10-15T16:35:39.722Z,1.52
2022-10-15T16:38:07.050Z,1.90
2022-10-15T16:40:34.724Z,1.50
2022-10-15T16:43:01.734Z,1.40
2022-10-15T16:45:28.653Z,1.75
2022-10-15T16:47:55.581Z,1.38
2022-10-15T16:50:22.834Z,1.75
2022-10-15T16:52:49.782Z,1.65
2022-10-15T16:55:17.133Z,1.50
2022-10-15T16:57:44.702Z,1.48
2022-10-15T17:00:12.083Z,1.38
2022-10-15T17:02:39.009Z,1.38
2022-10-15T17:05:06.374Z,1.80
2022-10-15T17:07:33.245Z,2.00
2022-10-15T17:10:00.613Z,1.70
2022-10-15T17:12:28.129Z,1.50
2022-10-15T17:14:55.313Z,1.60
2022-10-15T17:17:22.462Z,1.50
2022-10-15T17:19:49.391Z,2.00
2022-10-15T17:22:16.464Z,1.60
2022-10-15T17:24:43.499Z,1.90
2022-10-15T17:27:10.363Z,1.30
2022-10-15T17:29:37.360Z,1.17
2022-10-15T17:32:04.285Z,1.65
2022-10-15T17:34:31.167Z,1.55
2022-10-15T17:36:58.098Z,2.08
2022-10-15T17:39:25.035Z,1.85
2022-10-15T17:41:52.409Z,1.65
2022-10-15T17:44:19.975Z,1.58
2022-10-15T17:49:24.961Z,2.40
2022-10-15T17:51:51.823Z,2.10
2022-10-15T17:54:18.753Z,2.00
2022-10-15T17:56:45.908Z,1.83
2022-10-15T17:59:13.671Z,2.17
2022-10-15T18:01:59.542Z,1.92
2022-10-15T18:04:29.388Z,1.60
2022-10-15T18:06:56.332Z,1.83
2022-10-15T18:09:27.609Z,1.40
2022-10-15T18:12:00.623Z,1.92
2022-10-15T18:14:29.097Z,1.83
2022-10-15T18:16:56.372Z,1.85
2022-10-15T18:19:24.002Z,1.80
2022-10-15T18:21:50.986Z,2.17
2022-10-15T18:24:22.144Z,2.10
2022-10-15T18:26:51.288Z,2.33
2022-10-15T18:29:19.239Z,1.98
2022-10-15T18:31:47.311Z,2.20
2022-10-15T18:34:14.680Z,2.22
2022-10-15T18:36:43.649Z,2.15
2022-10-15T18:39:11.212Z,2.30
2022-10-15T18:41:38.926Z,1.98
2022-10-15T18:44:11.465Z,2.08
2022-10-15T18:46:42.280Z,2.28
2022-10-15T18:49:09.493Z,2.42
2022-10-15T18:51:36.563Z,2.33
2022-10-15T18:54:04.221Z,1.88
2022-10-15T18:56:31.372Z,2.25
2022-10-15T18:58:58.289Z,1.95
2022-10-15T19:01:29.477Z,2.45
2022-10-15T19:03:58.110Z,2.35
2022-10-15T19:06:29.109Z,1.70
2022-10-15T19:08:59.911Z,1.67
2022-10-15T19:11:30.993Z,1.80
2022-10-15T19:13:59.193Z,1.75
2022-10-15T19:16:26.826Z,2.00
2022-10-15T19:18:56.691Z,2.20
2022-10-15T19:21:23.658Z,2.28
2022-10-15T19:23:50.596Z,2.25
2022-10-15T19:26:17.685Z,2.10
2022-10-15T19:28:45.020Z,1.77
2022-10-15T19:31:18.052Z,1.77
2022-10-15T19:33:44.937Z,1.83
2022-10-15T19:36:11.895Z,2.00
2022-10-15T19:38:38.904Z,2.28
2022-10-15T19:41:07.321Z,2.13
2022-10-15T19:43:34.321Z,3.55
2022-10-15T19:46:04.790Z,2.40
2022-10-15T19:48:33.602Z,2.22
2022-10-15T19:51:04.684Z,2.85
2022-10-15T19:53:33.111Z,3.60
2022-10-15T19:56:02.965Z,2.50
2022-10-15T19:58:30.270Z,3.42
2022-10-15T20:00:57.577Z,2.65
2022-10-15T20:03:26.097Z,3.22
2022-10-15T20:05:53.313Z,3.85
2022-10-15T20:08:20.374Z,3.90
2022-10-15T20:10:51.385Z,4.93
2022-10-15T20:13:20.341Z,5.93
2022-10-15T20:15:49.822Z,6.10
2022-10-15T20:18:17.113Z,6.22
2022-10-15T20:20:48.497Z,6.35
2022-10-15T20:23:16.840Z,6.97
2022-10-15T20:25:44.277Z,7.03
2022-10-15T20:28:13.403Z,8.70
2022-10-15T20:30:41.038Z,8.40
2022-10-15T20:33:08.741Z,9.80
2022-10-15T20:35:38.112Z,8.98
2022-10-15T20:38:06.424Z,10.65
2022-10-15T20:40:35.356Z,10.30
2022-10-15T20:43:02.303Z,11.15
2022-10-15T20:45:37.527Z,11.23
2022-10-15T20:48:05.018Z,10.63
2022-10-15T20:50:35.112Z,10.98
2022-10-15T20:53:02.988Z,10.55
2022-10-15T20:55:30.392Z,10.73
2022-10-15T20:57:57.401Z,11.32
2022-10-15T21:00:24.323Z,11.35
2022-10-15T21:02:51.235Z,11.20
2022-10-15T21:05:18.089Z,12.57
2022-10-15T21:07:45.029Z,13.35
2022-10-15T21:10:11.958Z,11.93
2022-10-15T21:12:39.239Z,12.27
2022-10-15T21:15:06.822Z,12.18
2022-10-15T21:17:33.721Z,12.43
2022-10-15T21:20:00.646Z,13.63
2022-10-15T21:22:27.558Z,12.07
2022-10-15T21:24:54.416Z,13.38
2022-10-15T21:27:21.646Z,12.48
2022-10-15T21:29:49.571Z,13.23
2022-10-15T21:32:16.678Z,12.65
2022-10-15T21:34:43.719Z,12.27
2022-10-15T21:37:11.358Z,12.90
2022-10-15T21:39:38.304Z,12.25
2022-10-15T21:42:05.169Z,13.00
2022-10-15T21:44:32.084Z,13.30
2022-10-15T21:46:59.054Z,12.45
2022-10-15T21:49:25.911Z,13.18
2022-10-15T21:51:52.836Z,11.57
2022-10-15T21:54:19.693Z,13.45
2022-10-15T21:56:46.662Z,13.57
2022-10-15T21:59:13.740Z,13.40
2022-10-15T22:01:41.582Z,12.73
2022-10-15T22:04:10.520Z,12.40
2022-10-15T22:06:41.972Z,13.10
2022-10-15T22:09:10.550Z,12.25
2022-10-15T22:11:40.371Z,12.80
2022-10-15T22:14:10.279Z,13.27
2022-10-15T22:16:39.263Z,12.05
2022-10-15T22:19:08.706Z,11.27
2022-10-15T22:21:38.006Z,11.43
2022-10-15T22:24:15.142Z,12.18
2022-10-15T22:26:45.076Z,11.98
2022-10-15T22:29:23.746Z,10.48
2022-10-15T22:31:51.257Z,11.75
2022-10-15T22:34:19.507Z,11.30
2022-10-15T22:36:46.631Z,11.25
2022-10-15T22:39:15.507Z,11.25
2022-10-15T22:41:44.613Z,11.13
2022-10-15T22:44:19.965Z,11.60
2022-10-15T22:46:49.597Z,10.65
2022-10-15T22:49:22.449Z,11.07
2022-10-15T22:51:50.546Z,10.68
2022-10-15T22:54:20.041Z,11.38
2022-10-15T22:56:47.439Z,11.02
2022-10-15T22:59:15.446Z,11.02
2022-10-15T23:01:43.056Z,9.80
2022-10-15T23:04:12.716Z,10.18
2022-10-15T23:06:39.714Z,9.45
2022-10-15T23:09:07.665Z,8.60
2022-10-15T23:11:37.800Z,8.82
2022-10-15T23:14:07.467Z,8.43
2022-10-15T23:16:36.762Z,8.60
2022-10-15T23:19:07.481Z,7.47
2022-10-15T23:21:43.816Z,7.95
2022-10-15T23:24:11.518Z,7.25
2022-10-15T23:26:39.533Z,7.30
2022-10-15T23:29:08.734Z,7.22
2022-10-15T23:31:36.782Z,7.38
2022-10-15T23:34:05.646Z,7.65
2022-10-15T23:36:33.851Z,7.70
2022-10-15T23:39:02.883Z,7.30
2022-10-15T23:41:31.169Z,6.53
2022-10-15T23:43:58.596Z,6.07
2022-10-15T23:46:26.302Z,6.55
2022-10-15T23:48:53.179Z,6.28
2022-10-15T23:51:26.026Z,6.03
2022-10-15T23:53:54.194Z,5.82
2022-10-15T23:56:22.824Z,6.35
2022-10-15T23:58:55.009Z,5.20
